createdAt,value
2022-11-26T00:05:00.380Z,14.53
2022-11-26T00:10:04.908Z,16.23
2022-11-26T00:15:16.026Z,15.40
2022-11-26T00:20:21.749Z,16.07
2022-11-26T00:25:28.054Z,13.57
2022-11-26T00:30:30.100Z,14.77
2022-11-26T00:35:34.132Z,19.07
2022-11-26T00:40:35.798Z,15.43
2022-11-26T00:45:37.564Z,16.37
2022-11-26T00:50:44.663Z,15.30
2022-11-26T00:55:49.903Z,16.93
2022-11-26T01:00:52.732Z,15.57
2022-11-26T01:05:59.849Z,14.70
2022-11-26T01:11:05.443Z,15.17
2022-11-26T01:16:42.272Z,18.43
2022-11-26T01:21:44.412Z,14.70
2022-11-26T01:26:49.076Z,15.23
2022-11-26T01:31:52.321Z,15.13
2022-11-26T01:36:57.385Z,14.03
2022-11-26T01:42:31.759Z,16.23
2022-11-26T01:47:35.989Z,17.43
2022-11-26T01:52:37.693Z,17.43
2022-11-26T01:57:42.764Z,17.07
2022-11-26T02:02:46.024Z,21.13
2022-11-26T02:07:56.125Z,17.13
2022-11-26T02:13:00.244Z,20.17
2022-11-26T02:18:09.596Z,17.20
2022-11-26T02:23:39.058Z,19.97
2022-11-26T02:28:46.456Z,17.93
2022-11-26T02:34:16.390Z,20.13
2022-11-26T02:39:23.686Z,19.10
2022-11-26T02:44:27.948Z,27.30
2022-11-26T02:49:33.912Z,17.13
2022-11-26T02:54:41.521Z,19.00
2022-11-26T02:59:43.352Z,19.83
2022-11-26T03:04:49.105Z,19.90
2022-11-26T03:09:59.476Z,19.97
2022-11-26T03:15:03.414Z,21.33
2022-11-26T03:20:08.147Z,21.13
2022-11-26T03:25:10.288Z,19.80
2022-11-26T03:30:14.378Z,19.23
2022-11-26T03:35:20.897Z,21.60
2022-11-26T03:40:24.838Z,21.67
2022-11-26T03:45:35.516Z,23.07
2022-11-26T03:50:37.255Z,18.43
2022-11-26T03:55:38.956Z,22.67
2022-11-26T04:00:40.749Z,19.60
2022-11-26T04:05:45.816Z,21.17
2022-11-26T04:10:49.710Z,22.47
2022-11-26T04:15:54.498Z,26.37
2022-11-26T04:20:58.566Z,26.60
2022-11-26T04:26:03.294Z,30.83
2022-11-26T04:31:07.489Z,27.60
2022-11-26T04:36:11.658Z,29.67
2022-11-26T04:41:20.321Z,32.17
2022-11-26T04:46:22.308Z,27.13
2022-11-26T04:51:24.025Z,33.13
2022-11-26T04:56:25.730Z,34.83
2022-11-26T05:01:27.679Z,31.77
2022-11-26T05:06:34.628Z,38.03
2022-11-26T05:11:38.633Z,37.13
2022-11-26T05:16:42.670Z,35.00
2022-11-26T05:21:46.690Z,41.87
2022-11-26T05:26:52.433Z,36.57
2022-11-26T05:32:00.617Z,38.47
2022-11-26T05:37:06.374Z,40.90
2022-11-26T05:42:09.613Z,44.00
2022-11-26T05:47:11.449Z,43.30
2022-11-26T05:52:17.606Z,44.50
2022-11-26T05:57:21.800Z,43.03
2022-11-26T06:02:23.722Z,53.47
2022-11-26T06:07:26.345Z,48.73
2022-11-26T06:12:28.120Z,52.77
2022-11-26T06:17:29.801Z,53.57
2022-11-26T06:22:36.539Z,54.97
2022-11-26T06:27:38.257Z,57.23
2022-11-26T06:32:48.283Z,52.50
2022-11-26T06:37:50.156Z,61.80
2022-11-26T06:42:53.103Z,55.27
2022-11-26T06:47:58.255Z,50.83
2022-11-26T06:53:04.706Z,55.13
2022-11-26T06:58:10.575Z,54.13
2022-11-26T07:03:18.571Z,60.47
2022-11-26T07:08:22.719Z,59.23
2022-11-26T07:13:32.648Z,59.97
2022-11-26T07:18:36.867Z,56.37
2022-11-26T07:23:42.015Z,61.70
2022-11-26T07:28:48.319Z,68.33
2022-11-26T07:33:52.858Z,68.57
2022-11-26T07:38:59.180Z,74.33
2022-11-26T07:44:03.120Z,66.77
2022-11-26T07:49:05.848Z,62.80
2022-11-26T07:54:11.609Z,56.37
2022-11-26T07:59:18.983Z,53.20
2022-11-26T08:04:25.851Z,60.07
2022-11-26T08:09:27.661Z,57.13
2022-11-26T08:14:31.596Z,62.60
2022-11-26T08:19:35.563Z,65.80
2022-11-26T08:24:37.954Z,61.37
2022-11-26T08:29:40.566Z,55.87
2022-11-26T08:34:42.640Z,53.30
2022-11-26T08:39:44.869Z,68.17
2022-11-26T08:44:47.201Z,51.53
2022-11-26T08:49:50.199Z,65.37
2022-11-26T08:54:55.925Z,56.10
2022-11-26T08:59:59.055Z,54.80
2022-11-26T09:05:00.844Z,46.20
2022-11-26T09:10:02.662Z,53.43
2022-11-26T09:15:08.826Z,45.50
2022-11-26T09:20:15.963Z,42.27
2022-11-26T09:25:20.155Z,47.73
2022-11-26T09:30:25.760Z,52.40
2022-11-26T09:35:30.071Z,45.47
2022-11-26T09:40:53.840Z,40.07
2022-11-26T09:45:59.652Z,43.00
2022-11-26T09:51:08.626Z,34.87
2022-11-26T09:56:18.286Z,37.37
2022-11-26T10:01:24.484Z,30.10
2022-11-26T10:06:37.538Z,24.43
2022-11-26T10:12:10.908Z,30.43
2022-11-26T10:17:35.737Z,36.07
2022-11-26T10:22:56.864Z,35.70
2022-11-26T10:28:03.481Z,35.10
2022-11-26T10:33:12.521Z,31.43
2022-11-26T10:38:17.878Z,36.10
2022-11-26T10:43:28.388Z,30.13
2022-11-26T10:48:32.480Z,33.30
2022-11-26T10:53:53.917Z,33.83
2022-11-26T10:59:01.409Z,59.03
2022-11-26T11:04:22.452Z,33.97
2022-11-26T11:09:37.081Z,37.37
2022-11-26T11:14:47.788Z,40.83
2022-11-26T11:19:54.161Z,34.33
2022-11-26T11:25:00.656Z,29.20
2022-11-26T11:30:04.080Z,31.67
2022-11-26T11:35:30.295Z,29.03
2022-11-26T11:40:43.309Z,29.73
2022-11-26T11:46:08.176Z,32.70
2022-11-26T11:51:25.677Z,33.37
2022-11-26T11:56:38.786Z,36.03
2022-11-26T12:02:31.963Z,33.00
2022-11-26T12:07:44.428Z,32.07
2022-11-26T12:12:48.092Z,35.13
2022-11-26T12:18:00.809Z,35.90
2022-11-26T12:23:24.278Z,29.70
2022-11-26T12:28:29.370Z,33.03
2022-11-26T12:33:41.459Z,35.23
2022-11-26T12:38:49.548Z,35.03
2022-11-26T12:44:04.874Z,35.33
2022-11-26T12:49:45.269Z,41.40
2022-11-26T12:55:25.940Z,36.90
2022-11-26T13:00:35.707Z,39.40
2022-11-26T13:05:42.026Z,47.60
2022-11-26T13:11:04.823Z,41.57
2022-11-26T13:16:40.060Z,39.47
2022-11-26T13:21:54.226Z,38.97
2022-11-26T13:27:01.740Z,41.90
2022-11-26T13:32:20.197Z,36.57
2022-11-26T13:37:57.100Z,37.07
2022-11-26T13:43:07.933Z,37.97
2022-11-26T13:48:20.019Z,38.23
2022-11-26T13:53:32.544Z,40.73
2022-11-26T13:58:45.655Z,43.50
2022-11-26T14:03:49.592Z,40.37
2022-11-26T14:08:56.572Z,39.40
2022-11-26T14:14:28.067Z,39.77
2022-11-26T14:19:44.584Z,40.00
2022-11-26T14:24:51.337Z,39.00
2022-11-26T14:30:13.347Z,35.90
2022-11-26T14:35:39.560Z,41.13
2022-11-26T14:40:46.913Z,39.97
2022-11-26T14:46:02.287Z,42.27
2022-11-26T14:51:09.487Z,44.60
2022-11-26T14:56:11.222Z,47.50
2022-11-26T15:01:15.541Z,45.80
2022-11-26T15:06:34.991Z,49.87
2022-11-26T15:11:42.672Z,48.17
2022-11-26T15:16:44.922Z,49.60
2022-11-26T15:21:51.025Z,48.70
2022-11-26T15:26:52.961Z,45.97
2022-11-26T15:31:54.798Z,47.67
2022-11-26T15:36:56.617Z,49.77
2022-11-26T15:42:06.446Z,50.03
2022-11-26T15:47:17.527Z,46.43
2022-11-26T15:52:24.304Z,51.33
2022-11-26T15:57:27.122Z,46.30
2022-11-26T16:02:31.203Z,48.13
2022-11-26T16:07:33.910Z,48.60
2022-11-26T16:12:44.374Z,46.37
2022-11-26T16:17:49.060Z,49.10
2022-11-26T16:23:01.915Z,45.33
2022-11-26T16:28:14.345Z,48.33
2022-11-26T16:33:16.166Z,46.80
2022-11-26T16:38:25.458Z,47.27
2022-11-26T16:43:27.434Z,46.43
2022-11-26T16:48:31.839Z,56.10
2022-11-26T16:53:40.748Z,49.50
2022-11-26T16:58:47.035Z,49.50
2022-11-26T17:03:48.831Z,48.50
2022-11-26T17:08:50.887Z,48.67
2022-11-26T17:13:53.134Z,48.97
2022-11-26T17:18:54.929Z,46.53
2022-11-26T17:23:56.617Z,52.07
2022-11-26T17:29:02.144Z,49.20
2022-11-26T17:34:06.823Z,47.67
2022-11-26T17:39:13.560Z,49.13
2022-11-26T17:44:17.746Z,51.20
2022-11-26T17:49:19.573Z,50.23
2022-11-26T17:54:23.620Z,48.70
2022-11-26T17:59:28.754Z,50.07
2022-11-26T18:04:33.054Z,50.07
2022-11-26T18:09:35.192Z,52.20
2022-11-26T18:14:42.377Z,48.43
2022-11-26T18:19:47.939Z,49.77
2022-11-26T18:24:57.661Z,49.93
2022-11-26T18:29:59.575Z,49.27
2022-11-26T18:35:04.753Z,58.75
2022-11-26T18:40:08.152Z,50.87
2022-11-26T18:45:13.618Z,50.07
2022-11-26T18:50:15.941Z,48.83
2022-11-26T18:55:17.952Z,46.77
2022-11-26T19:00:22.412Z,46.40
2022-11-26T19:05:26.608Z,51.73
2022-11-26T19:10:28.421Z,49.00
2022-11-26T19:15:32.866Z,52.23
2022-11-26T19:20:54.253Z,52.73
2022-11-26T19:25:59.137Z,53.03
2022-11-26T19:31:07.768Z,49.13
2022-11-26T19:36:12.911Z,50.53
2022-11-26T19:41:21.246Z,47.67
2022-11-26T19:46:28.294Z,49.47
2022-11-26T19:51:34.948Z,47.00
2022-11-26T19:56:39.017Z,49.23
2022-11-26T20:01:40.992Z,47.33
2022-11-26T20:06:45.809Z,46.13
2022-11-26T20:11:49.943Z,47.77
2022-11-26T20:16:59.429Z,44.33
2022-11-26T20:22:05.621Z,50.20
2022-11-26T20:27:09.470Z,47.97
2022-11-26T20:32:16.197Z,46.90
2022-11-26T20:37:20.865Z,47.17
2022-11-26T20:42:24.632Z,43.43
2022-11-26T20:47:30.879Z,45.50
2022-11-26T20:52:34.936Z,41.77
2022-11-26T20:57:36.967Z,43.83
2022-11-26T21:02:41.848Z,39.23
2022-11-26T21:07:45.979Z,37.80
2022-11-26T21:12:49.965Z,36.00
2022-11-26T21:17:58.561Z,35.87
2022-11-26T21:23:00.276Z,33.80
2022-11-26T21:28:04.135Z,25.87
2022-11-26T21:33:12.756Z,30.53
2022-11-26T21:38:16.799Z,29.97
2022-11-26T21:43:21.831Z,30.57
2022-11-26T21:48:23.557Z,27.27
2022-11-26T21:53:27.554Z,26.03
2022-11-26T21:58:37.155Z,25.00
2022-11-26T22:03:40.953Z,23.63
2022-11-26T22:08:48.292Z,23.10
2022-11-26T22:13:52.450Z,22.73
2022-11-26T22:18:57.215Z,20.77
2022-11-26T22:24:05.161Z,20.67
2022-11-26T22:29:06.964Z,20.37
2022-11-26T22:34:13.546Z,21.37
2022-11-26T22:39:18.406Z,21.63
2022-11-26T22:44:20.114Z,21.23
2022-11-26T22:49:22.123Z,21.87
2022-11-26T22:54:28.562Z,21.20
2022-11-26T22:59:30.584Z,21.20
2022-11-26T23:04:32.337Z,18.37
2022-11-26T23:09:34.052Z,19.23
2022-11-26T23:14:35.735Z,19.77
2022-11-26T23:19:37.688Z,17.80
2022-11-26T23:24:41.768Z,17.33
2022-11-26T23:29:45.692Z,17.97
2022-11-26T23:34:50.451Z,16.93
2022-11-26T23:39:54.590Z,16.67
2022-11-26T23:44:58.449Z,17.77
2022-11-26T23:50:01.130Z,18.67
2022-11-26T23:55:05.744Z,19.03
